sensor_id;sensor_type;location;lat;lon;timestamp;pressure;altitude;pressure_sealevel;temperature;humidity
62111;BME280;48102;47.526;19.072;2023-03-19T07:03:26;100886.91;;;7.65;72.03
62111;BME280;48102;47.526;19.072;2023-03-19T07:06:29;100886.91;;;7.65;72.03
62111;BME280;48102;47.526;19.072;2023-03-19T07:09:32;100886.16;;;7.28;77.74
62111;BME280;48102;47.526;19.072;2023-03-19T07:12:35;100882.84;;;7.53;74.52
62111;BME280;48102;47.526;19.072;2023-03-19T07:15:38;100882.28;;;7.73;68.43
62111;BME280;48102;47.526;19.072;2023-03-19T07:18:41;100876.41;;;7.93;65.81
62111;BME280;48102;47.526;19.072;2023-03-19T07:21:43;100885.63;;;8.08;63.06
62111;BME280;48102;47.526;19.072;2023-03-19T07:24:46;100878.47;;;7.83;61.51
62111;BME280;48102;47.526;19.072;2023-03-19T07:27:49;100880.25;;;7.83;61.20
62111;BME280;48102;47.526;19.072;2023-03-19T07:30:52;100879.59;;;7.74;61.34
62111;BME280;48102;47.526;19.072;2023-03-19T07:33:55;100874.41;;;7.73;61.82
62111;BME280;48102;47.526;19.072;2023-03-19T07:36:58;100870.47;;;7.88;59.57
62111;BME280;48102;47.526;19.072;2023-03-19T07:40:01;100871.31;;;7.88;58.55
62111;BME280;48102;47.526;19.072;2023-03-19T07:43:05;100885.06;;;7.96;57.94
62111;BME280;48102;47.526;19.072;2023-03-19T07:46:08;100883.78;;;8.10;57.04
62111;BME280;48102;47.526;19.072;2023-03-19T07:49:11;100887.25;;;8.10;57.87
62111;BME280;48102;47.526;19.072;2023-03-19T07:52:14;100879.88;;;8.23;56.08
62111;BME280;48102;47.526;19.072;2023-03-19T07:55:17;100878.56;;;8.38;55.44
62111;BME280;48102;47.526;19.072;2023-03-19T07:58:19;100870.19;;;8.53;55.80
62111;BME280;48102;47.526;19.072;2023-03-19T08:01:23;100873.94;;;8.72;55.46
62111;BME280;48102;47.526;19.072;2023-03-19T08:04:26;100864.72;;;8.86;53.49
62111;BME280;48102;47.526;19.072;2023-03-19T08:07:29;100874.59;;;9.04;53.41
62111;BME280;48102;47.526;19.072;2023-03-19T08:10:35;100871.37;;;9.21;52.35
62111;BME280;48102;47.526;19.072;2023-03-19T08:13:41;100865.78;;;9.53;52.30
62111;BME280;48102;47.526;19.072;2023-03-19T08:16:44;100859.03;;;9.46;51.21
62111;BME280;48102;47.526;19.072;2023-03-19T08:19:47;100858.38;;;9.41;51.95
62111;BME280;48102;47.526;19.072;2023-03-19T08:22:50;100856.28;;;9.49;50.28
62111;BME280;48102;47.526;19.072;2023-03-19T08:25:53;100849.72;;;9.61;50.23
62111;BME280;48102;47.526;19.072;2023-03-19T08:28:57;100848.59;;;9.67;50.66
62111;BME280;48102;47.526;19.072;2023-03-19T08:32:00;100858.50;;;9.84;49.27
62111;BME280;48102;47.526;19.072;2023-03-19T08:35:04;100859.41;;;10.06;48.70
62111;BME280;48102;47.526;19.072;2023-03-19T08:38:07;100863.06;;;10.02;47.61
62111;BME280;48102;47.526;19.072;2023-03-19T08:41:10;100866.50;;;10.04;48.48
62111;BME280;48102;47.526;19.072;2023-03-19T08:44:13;100861.13;;;10.07;47.32
62111;BME280;48102;47.526;19.072;2023-03-19T08:47:16;100861.34;;;10.24;48.17
62111;BME280;48102;47.526;19.072;2023-03-19T08:50:18;100846.66;;;10.39;48.04
62111;BME280;48102;47.526;19.072;2023-03-19T08:53:22;100872.31;;;10.56;47.93
62111;BME280;48102;47.526;19.072;2023-03-19T08:56:25;100855.19;;;10.46;47.89
62111;BME280;48102;47.526;19.072;2023-03-19T08:59:28;100861.59;;;10.61;47.96
62111;BME280;48102;47.526;19.072;2023-03-19T09:02:36;100856.44;;;10.79;47.47
62111;BME280;48102;47.526;19.072;2023-03-19T09:05:39;100842.25;;;10.82;47.35
62111;BME280;48102;47.526;19.072;2023-03-19T09:08:42;100848.44;;;11.01;46.59
62111;BME280;48102;47.526;19.072;2023-03-19T13:38:10;100523.03;;;25.48;22.12
62111;BME280;48102;47.526;19.072;2023-03-19T13:44:53;100519.97;;;24.60;24.13
62111;BME280;48102;47.526;19.072;2023-03-19T13:51:28;100507.44;;;24.43;23.02
62111;BME280;48102;47.526;19.072;2023-03-19T13:57:40;100484.13;;;23.29;23.75
62111;BME280;48102;47.526;19.072;2023-03-19T14:04:00;100498.22;;;21.66;25.87
62111;BME280;48102;47.526;19.072;2023-03-19T14:10:28;100479.16;;;20.42;27.01
62111;BME280;48102;47.526;19.072;2023-03-19T14:13:35;100474.69;;;21.12;27.36
62111;BME280;48102;47.526;19.072;2023-03-19T14:16:44;100477.63;;;22.04;26.54
62111;BME280;48102;47.526;19.072;2023-03-19T14:19:51;100480.72;;;22.46;25.74
